Chrisopigi Lady — A8EQ9 — position and weather

sailwx.info

Track history (hours):
 
Tides and Currents Weather Stations Pressure Air Temp Water Temp Dewpoint Dewpoint Depression Visibility Wind Speed Wind Dir Waves Ship Positions

Chrisopigi Lady

Last reported at 2017-Oct-15 01:01 UTC. Time now 2017-Nov-18 01:11 UTC.
Position N 01°11' E 103°49'.
Warning: this ship's position is 34 days out of date.

Length 228 m; draft 8 m.

Type: Ship (hazmat cat A). MMSI: 636012314.

Date/timePositionNaut miles runAvg speedWind from/ knotsBaromVisibWave heightAir tempDewpointWater temp
2017-Oct-15 01:01N 01°11' E 103°49'0 2.5
2017-Oct-15 00:56N 01°11' E 103°49'1 2.5
2017-Oct-15 00:30N 01°11' E 103°50'2 4.6
2017-Oct-14 23:58N 01°12' E 103°52'2 5.3
2017-Oct-14 23:30N 01°14' E 103°54'2 3.1
2017-Oct-14 22:58N 01°15' E 103°55'0 0.1
2017-Oct-14 19:43N 01°15' E 103°55'0 0.0
2017-Oct-14 19:30N 01°15' E 103°55'0 0.0
2017-Oct-14 18:37N 01°15' E 103°55'0 0.0
2017-Oct-14 18:24N 01°15' E 103°55'0 0.0
2017-Oct-14 17:58N 01°15' E 103°55'0 0.0
2017-Oct-14 17:23N 01°15' E 103°55'3430.8
2017-Oct-14 16:16N 01°17' E 103°20'613.8
2017-Oct-14 15:50N 01°14' E 103°25'413.3
2017-Oct-14 15:30N 01°13' E 103°30'712.9
2017-Oct-14 14:59N 01°12' E 103°36'611.6
2017-Oct-14 14:30N 01°10' E 103°41'5 9.7
2017-Oct-14 14:00N 01°09' E 103°46'510.6
2017-Oct-14 13:30N 01°12' E 103°51'5 9.5
2017-Oct-14 13:00N 01°15' E 103°54'0 0.2
2017-Oct-14 10:48N 01°15' E 103°55'0 0.2
2017-Oct-14 10:25N 01°15' E 103°55'0 0.0
2017-Oct-14 09:57N 01°15' E 103°55'0 0.0
2017-Oct-14 09:29N 01°15' E 103°55'0 0.0
2017-Oct-14 08:01N 01°15' E 103°55'018.6
2017-Oct-14 08:00N 01°15' E 103°55'0 0.0
2017-Oct-14 07:24N 01°15' E 103°55'0 0.0
2017-Oct-14 07:00N 01°15' E 103°55'0 0.0
2017-Oct-14 06:30N 01°15' E 103°55'0 0.3
2017-Oct-14 05:43N 01°15' E 103°55'0 1.2
2017-Oct-14 05:30N 01°15' E 103°55'0 0.3
2017-Oct-14 04:37N 01°15' E 103°55'0 0.9
2017-Oct-14 04:22N 01°15' E 103°55'0 0.2
2017-Oct-14 03:28N 01°15' E 103°55'0 0.1
2017-Oct-14 02:48N 01°15' E 103°55'0 0.8
2017-Oct-14 02:30N 01°15' E 103°55'0 0.4
2017-Oct-14 01:53N 01°15' E 103°55'0 0.0
2017-Oct-13 19:11N 01°15' E 103°55'0 0.0
2017-Oct-13 18:55N 01°15' E 103°55'0 0.3
2017-Oct-13 18:17N 01°15' E 103°54'0 0.0
2017-Oct-13 15:10N 01°15' E 103°54'3 8.9
2017-Oct-13 14:48N 01°16' E 103°58'1 2.0
2017-Oct-13 14:30N 01°16' E 103°58'1 1.9
2017-Oct-13 13:59N 01°17' E 103°59'1 1.4
2017-Oct-13 13:30N 01°17' E 103°59'0 0.3
2017-Oct-13 12:58N 01°18' E 103°59'0 0.0
2017-Oct-13 08:29N 01°17' E 103°59'0 0.0
2017-Oct-13 06:55N 01°17' E 103°59'0 0.0
2017-Oct-13 06:30N 01°17' E 103°59'0 0.2
2017-Oct-13 04:55N 01°17' E 103°59'0 0.0
2017-Oct-13 04:28N 01°17' E 103°59'5 8.9
2017-Oct-13 03:52N 01°15' E 103°54'1 2.7
2017-Oct-13 03:30N 01°14' E 103°55'4 8.0
2017-Oct-13 02:58N 01°16' E 103°59'1 0.6
2017-Oct-13 00:27N 01°17' E 103°59'0 0.0
2017-Oct-12 23:50N 01°17' E 103°59'0 0.0
2017-Oct-12 22:46N 01°17' E 103°59'0 0.0
2017-Oct-12 22:20N 01°17' E 103°59'0 0.0
2017-Oct-12 19:10N 01°18' E 103°59'2 0.3
2017-Oct-12 12:39N 01°17' E 103°58'0 2.1
2017-Oct-12 12:29N 01°17' E 103°58'1 1.2
2017-Oct-12 12:00N 01°16' E 103°57'1 1.2
2017-Oct-12 11:29N 01°16' E 103°58'1 1.9
2017-Oct-12 11:00N 01°16' E 103°59'1 2.0
2017-Oct-12 10:29N 01°16' E 104°00'1 1.4
2017-Oct-12 10:00N 01°16' E 104°01'1 1.6
2017-Oct-12 09:30N 01°16' E 104°01'1 1.3
2017-Oct-12 09:00N 01°16' E 104°02'1 1.1
2017-Oct-12 08:30N 01°16' E 104°03'4 0.5
2017-Oct-12 00:48N 01°17' E 103°59'2 5.8
2017-Oct-12 00:30N 01°17' E 103°58'3 5.6
2017-Oct-11 23:59N 01°16' E 104°00'  
Track history (hours):
 
Tides and Currents Weather Stations Pressure Air Temp Water Temp Dewpoint Dewpoint Depression Visibility Wind Speed Wind Dir Waves Ship Positions

Chrisopigi Lady

Last reported at 2017-Oct-15 01:01 UTC. Time now 2017-Nov-18 01:11 UTC.
Position N 01°11' E 103°49'.
Warning: this ship's position is 34 days out of date.

Length 228 m; draft 8 m.

Type: Ship (hazmat cat A). MMSI: 636012314.

Date/timePositionNaut miles runAvg speedWind from/ knotsBaromVisibWave heightAir tempDewpointWater temp
2017-Oct-15 01:01N 01°11' E 103°49'0 2.5
2017-Oct-15 00:56N 01°11' E 103°49'1 2.5
2017-Oct-15 00:30N 01°11' E 103°50'2 4.6
2017-Oct-14 23:58N 01°12' E 103°52'2 5.3
2017-Oct-14 23:30N 01°14' E 103°54'2 3.1
2017-Oct-14 22:58N 01°15' E 103°55'0 0.1
2017-Oct-14 19:43N 01°15' E 103°55'0 0.0
2017-Oct-14 19:30N 01°15' E 103°55'0 0.0
2017-Oct-14 18:37N 01°15' E 103°55'0 0.0
2017-Oct-14 18:24N 01°15' E 103°55'0 0.0
2017-Oct-14 17:58N 01°15' E 103°55'0 0.0
2017-Oct-14 17:23N 01°15' E 103°55'3430.8
2017-Oct-14 16:16N 01°17' E 103°20'613.8
2017-Oct-14 15:50N 01°14' E 103°25'413.3
2017-Oct-14 15:30N 01°13' E 103°30'712.9
2017-Oct-14 14:59N 01°12' E 103°36'611.6
2017-Oct-14 14:30N 01°10' E 103°41'5 9.7
2017-Oct-14 14:00N 01°09' E 103°46'510.6
2017-Oct-14 13:30N 01°12' E 103°51'5 9.5
2017-Oct-14 13:00N 01°15' E 103°54'0 0.2
2017-Oct-14 10:48N 01°15' E 103°55'0 0.2
2017-Oct-14 10:25N 01°15' E 103°55'0 0.0
2017-Oct-14 09:57N 01°15' E 103°55'0 0.0
2017-Oct-14 09:29N 01°15' E 103°55'0 0.0
2017-Oct-14 08:01N 01°15' E 103°55'018.6
2017-Oct-14 08:00N 01°15' E 103°55'0 0.0
2017-Oct-14 07:24N 01°15' E 103°55'0 0.0
2017-Oct-14 07:00N 01°15' E 103°55'0 0.0
2017-Oct-14 06:30N 01°15' E 103°55'0 0.3
2017-Oct-14 05:43N 01°15' E 103°55'0 1.2
2017-Oct-14 05:30N 01°15' E 103°55'0 0.3
2017-Oct-14 04:37N 01°15' E 103°55'0 0.9
2017-Oct-14 04:22N 01°15' E 103°55'0 0.2
2017-Oct-14 03:28N 01°15' E 103°55'0 0.1
2017-Oct-14 02:48N 01°15' E 103°55'0 0.8
2017-Oct-14 02:30N 01°15' E 103°55'0 0.4
2017-Oct-14 01:53N 01°15' E 103°55'0 0.0
2017-Oct-13 19:11N 01°15' E 103°55'0 0.0
2017-Oct-13 18:55N 01°15' E 103°55'0 0.3
2017-Oct-13 18:17N 01°15' E 103°54'0 0.0
2017-Oct-13 15:10N 01°15' E 103°54'3 8.9
2017-Oct-13 14:48N 01°16' E 103°58'1 2.0
2017-Oct-13 14:30N 01°16' E 103°58'1 1.9
2017-Oct-13 13:59N 01°17' E 103°59'1 1.4
2017-Oct-13 13:30N 01°17' E 103°59'0 0.3
2017-Oct-13 12:58N 01°18' E 103°59'0 0.0
2017-Oct-13 08:29N 01°17' E 103°59'0 0.0
2017-Oct-13 06:55N 01°17' E 103°59'0 0.0
2017-Oct-13 06:30N 01°17' E 103°59'0 0.2
2017-Oct-13 04:55N 01°17' E 103°59'0 0.0
2017-Oct-13 04:28N 01°17' E 103°59'5 8.9
2017-Oct-13 03:52N 01°15' E 103°54'1 2.7
2017-Oct-13 03:30N 01°14' E 103°55'4 8.0
2017-Oct-13 02:58N 01°16' E 103°59'1 0.6
2017-Oct-13 00:27N 01°17' E 103°59'0 0.0
2017-Oct-12 23:50N 01°17' E 103°59'0 0.0
2017-Oct-12 22:46N 01°17' E 103°59'0 0.0
2017-Oct-12 22:20N 01°17' E 103°59'0 0.0
2017-Oct-12 19:10N 01°18' E 103°59'2 0.3
2017-Oct-12 12:39N 01°17' E 103°58'0 2.1
2017-Oct-12 12:29N 01°17' E 103°58'1 1.2
2017-Oct-12 12:00N 01°16' E 103°57'1 1.2
2017-Oct-12 11:29N 01°16' E 103°58'1 1.9
2017-Oct-12 11:00N 01°16' E 103°59'1 2.0
2017-Oct-12 10:29N 01°16' E 104°00'1 1.4
2017-Oct-12 10:00N 01°16' E 104°01'1 1.6
2017-Oct-12 09:30N 01°16' E 104°01'1 1.3
2017-Oct-12 09:00N 01°16' E 104°02'1 1.1
2017-Oct-12 08:30N 01°16' E 104°03'4 0.5
2017-Oct-12 00:48N 01°17' E 103°59'2 5.8
2017-Oct-12 00:30N 01°17' E 103°58'3 5.6
2017-Oct-11 23:59N 01°16' E 104°00'  

Dump ship's entire track history